Time;durP1;ratioP1;P1;durP2;ratioP2;P2;SDS_P1;SDS_P2;PMS_P1;PMS_P2;Temp;Humidity;BMP_temperature;BMP_pressure;BME280_temperature;BME280_humidity;BME280_pressure;Samples;Min_cycle;Max_cycle;Signal;HPM_P1;HPM_P2
2023/10/12 00:00:41;;;;;;;12.80;6.73;;;18.30;99.90;;;;;;5083872;28;20749;-56
2023/10/12 00:03:12;;;;;;;16.27;6.73;;;18.20;99.90;;;;;;5084947;28;20596;-53
2023/10/12 00:05:45;;;;;;;8.77;6.80;;;18.20;99.90;;;;;;5081694;28;20212;-56
2023/10/12 00:08:30;;;;;;;9.83;6.03;;;18.20;99.90;;;;;;5078901;28;20215;-55
2023/10/12 00:11:00;;;;;;;11.97;6.80;;;18.10;99.90;;;;;;5080499;28;20223;-55
2023/10/12 00:13:29;;;;;;;10.90;6.53;;;18.10;99.90;;;;;;5085961;28;20279;-55
2023/10/12 00:15:57;;;;;;;11.23;6.67;;;18.00;99.90;;;;;;5084259;28;20218;-54
2023/10/12 00:18:26;;;;;;;12.83;7.10;;;17.90;99.90;;;;;;5085620;28;20656;-55
2023/10/12 00:20:54;;;;;;;12.03;6.60;;;17.90;99.90;;;;;;5082905;28;20223;-54
2023/10/12 00:23:26;;;;;;;11.87;6.33;;;17.80;99.90;;;;;;5083862;28;20230;-55
2023/10/12 00:25:56;;;;;;;12.80;7.00;;;17.80;99.90;;;;;;5084929;28;20716;-56
2023/10/12 00:28:37;;;;;;;10.47;7.13;;;17.70;99.90;;;;;;5080199;28;20192;-55
2023/10/12 00:31:07;;;;;;;9.60;6.90;;;17.60;99.90;;;;;;5082780;28;20194;-54
2023/10/12 00:33:35;;;;;;;11.97;7.30;;;17.60;99.90;;;;;;5064764;28;20227;-55
2023/10/12 00:36:04;;;;;;;12.50;7.30;;;17.50;99.90;;;;;;5066113;28;20220;-54
2023/10/12 00:38:38;;;;;;;8.60;7.10;;;17.50;99.90;;;;;;5065921;28;20220;-55
2023/10/12 00:41:14;;;;;;;15.83;7.87;;;17.40;99.90;;;;;;5068506;28;20651;-55
2023/10/12 00:43:50;;;;;;;16.13;7.67;;;17.40;99.90;;;;;;5067080;28;20212;-55
2023/10/12 00:46:20;;;;;;;10.17;7.80;;;17.40;99.90;;;;;;5065128;28;20953;-55
2023/10/12 00:48:55;;;;;;;12.33;7.73;;;17.40;99.90;;;;;;5066798;28;20635;-56
2023/10/12 00:51:24;;;;;;;13.40;8.07;;;17.30;99.90;;;;;;5065946;28;20578;-55
2023/10/12 00:53:56;;;;;;;12.23;7.57;;;17.30;99.90;;;;;;5064399;28;20231;-53
2023/10/12 00:56:28;;;;;;;17.97;8.23;;;17.30;99.90;;;;;;5069460;28;20226;-54
2023/10/12 00:58:57;;;;;;;16.60;8.20;;;17.20;99.90;;;;;;5070819;28;20231;-54
2023/10/12 01:01:26;;;;;;;12.33;8.30;;;17.10;99.90;;;;;;5068281;28;20208;-56
2023/10/12 01:03:55;;;;;;;12.47;7.50;;;17.10;99.90;;;;;;5067377;28;20198;-55
2023/10/12 01:06:29;;;;;;;15.97;8.73;;;17.10;99.90;;;;;;5069715;28;20227;-54
2023/10/12 01:08:59;;;;;;;19.97;9.40;;;17.00;99.90;;;;;;5062779;28;20224;-56
2023/10/12 01:11:33;;;;;;;13.17;8.50;;;17.00;99.90;;;;;;5064776;28;20242;-55
2023/10/12 01:14:09;;;;;;;15.27;8.80;;;17.00;99.90;;;;;;5064858;28;20233;-53
2023/10/12 01:16:45;;;;;;;18.10;9.10;;;16.90;99.90;;;;;;5065227;28;20295;-53
2023/10/12 01:19:20;;;;;;;15.47;9.00;;;16.90;99.90;;;;;;5066365;28;20196;-52
2023/10/12 01:21:52;;;;;;;15.93;8.93;;;16.80;99.90;;;;;;5063801;28;20563;-54
2023/10/12 01:24:29;;;;;;;14.07;9.10;;;16.80;99.90;;;;;;5068762;28;20222;-54
2023/10/12 01:26:59;;;;;;;16.30;9.33;;;16.80;99.90;;;;;;5066627;28;20282;-53
2023/10/12 01:29:30;;;;;;;21.00;10.37;;;16.70;99.90;;;;;;5062836;28;20224;-52
2023/10/12 01:32:20;;;;;;;18.17;9.93;;;16.70;99.90;;;;;;5066198;28;20620;-53
2023/10/12 01:34:52;;;;;;;19.03;9.97;;;16.70;99.90;;;;;;5069204;28;20227;-55
2023/10/12 01:37:25;;;;;;;16.30;9.63;;;16.60;99.90;;;;;;5069135;28;20230;-54
2023/10/12 01:40:12;;;;;;;18.50;9.83;;;16.50;99.90;;;;;;5065454;28;20196;-54
2023/10/12 01:42:49;;;;;;;16.53;9.00;;;16.60;99.90;;;;;;5061814;28;20804;-53
2023/10/12 01:45:31;;;;;;;13.17;9.40;;;16.60;99.90;;;;;;5061015;28;20229;-51
2023/10/12 01:48:07;;;;;;;18.33;10.10;;;16.60;99.90;;;;;;5065864;28;20270;-52
2023/10/12 01:50:37;;;;;;;17.47;9.57;;;16.50;99.90;;;;;;5070942;28;20227;-52
2023/10/12 01:53:22;;;;;;;16.40;10.30;;;16.50;99.90;;;;;;5066420;28;20265;-54
2023/10/12 01:55:52;;;;;;;17.57;10.50;;;16.40;99.90;;;;;;5064586;28;20230;-53
2023/10/12 01:58:23;;;;;;;16.20;10.33;;;16.40;99.90;;;;;;5065272;28;20219;-52
2023/10/12 02:00:52;;;;;;;17.47;10.37;;;16.30;99.90;;;;;;5061371;28;20204;-52
2023/10/12 02:03:31;;;;;;;16.37;10.70;;;16.30;99.90;;;;;;5065561;28;20263;-55
2023/10/12 02:06:02;;;;;;;16.47;10.43;;;16.20;99.90;;;;;;5063815;28;20247;-53
2023/10/12 02:08:34;;;;;;;17.27;10.43;;;16.20;99.90;;;;;;5064594;28;20212;-54
2023/10/12 02:11:10;;;;;;;15.30;10.83;;;16.20;99.90;;;;;;5064815;28;20555;-53
2023/10/12 02:13:41;;;;;;;19.57;10.47;;;16.20;99.90;;;;;;5060525;28;20224;-52
2023/10/12 02:16:12;;;;;;;16.50;10.60;;;16.20;99.90;;;;;;5067168;28;20283;-56
2023/10/12 02:18:42;;;;;;;18.63;10.77;;;16.20;99.90;;;;;;5068661;28;20598;-54
2023/10/12 02:21:12;;;;;;;13.23;10.20;;;16.20;99.90;;;;;;5063726;28;20230;-52
2023/10/12 02:23:57;;;;;;;18.27;11.03;;;16.20;99.90;;;;;;5065780;28;20223;-54
2023/10/12 02:26:31;;;;;;;15.77;11.17;;;16.10;99.90;;;;;;5070441;28;20586;-54
2023/10/12 02:29:11;;;;;;;19.33;11.47;;;16.10;99.90;;;;;;5064531;28;20245;-53
2023/10/12 02:31:46;;;;;;;17.90;11.00;;;16.10;99.90;;;;;;5059348;28;20277;-52
2023/10/12 02:34:16;;;;;;;17.83;11.20;;;16.00;99.90;;;;;;5067871;28;20637;-52
2023/10/12 02:37:00;;;;;;;16.47;11.03;;;16.00;99.90;;;;;;5065452;28;20215;-53
2023/10/12 02:39:31;;;;;;;20.63;11.10;;;16.00;99.90;;;;;;5066720;28;20216;-54
2023/10/12 02:42:11;;;;;;;17.10;11.23;;;16.00;99.90;;;;;;5065435;28;20230;-53
2023/10/12 02:45:08;;;;;;;22.97;10.53;;;16.00;99.90;;;;;;5067457;28;20319;-53
2023/10/12 02:47:40;;;;;;;17.20;11.20;;;16.00;99.90;;;;;;5067821;28;20220;-54
2023/10/12 02:50:27;;;;;;;22.07;11.63;;;16.00;99.90;;;;;;5066595;28;20285;-53
2023/10/12 02:52:55;;;;;;;15.93;11.30;;;16.00;99.90;;;;;;5064241;28;20274;-53
2023/10/12 02:55:40;;;;;;;21.77;11.47;;;15.90;99.90;;;;;;5067422;28;20191;-53
2023/10/12 02:58:19;;;;;;;22.87;11.97;;;15.90;99.90;;;;;;5066573;28;20254;-53
2023/10/12 03:00:54;;;;;;;20.20;11.87;;;15.90;99.90;;;;;;5045753;28;20218;-54
2023/10/12 03:03:31;;;;;;;18.77;11.63;;;15.80;99.90;;;;;;5066033;28;20554;-55
2023/10/12 03:06:01;;;;;;;19.00;11.60;;;15.80;99.90;;;;;;5062271;28;20226;-52
2023/10/12 03:08:33;;;;;;;19.97;11.30;;;15.80;99.90;;;;;;5063425;28;20215;-53
2023/10/12 03:11:12;;;;;;;18.27;11.77;;;15.80;99.90;;;;;;5064779;28;20511;-54
2023/10/12 03:13:54;;;;;;;17.83;11.13;;;15.80;99.90;;;;;;5069511;28;20218;-54
2023/10/12 03:16:23;;;;;;;22.70;11.40;;;15.80;99.90;;;;;;5064725;28;20207;-53
2023/10/12 03:18:57;;;;;;;17.00;12.03;;;15.80;99.90;;;;;;5067033;28;20194;-54
2023/10/12 03:21:33;;;;;;;23.77;11.27;;;15.70;99.90;;;;;;5063583;28;20229;-51
2023/10/12 03:24:05;;;;;;;20.07;12.00;;;15.70;99.90;;;;;;5064778;28;20208;-51
2023/10/12 03:26:35;;;;;;;19.03;11.73;;;15.70;99.90;;;;;;5066149;28;20231;-53
2023/10/12 03:29:18;;;;;;;21.17;11.77;;;15.70;99.90;;;;;;5062941;28;20291;-52
2023/10/12 03:31:57;;;;;;;24.40;12.13;;;15.70;99.90;;;;;;5065618;28;20232;-53
2023/10/12 03:34:36;;;;;;;22.30;12.03;;;15.70;99.90;;;;;;5064835;28;20195;-53
2023/10/12 03:37:13;;;;;;;24.97;12.17;;;15.70;99.90;;;;;;5069187;28;20276;-54
2023/10/12 03:39:58;;;;;;;24.50;12.83;;;15.70;99.90;;;;;;5047295;28;20219;-55
2023/10/12 03:42:42;;;;;;;24.57;13.40;;;15.70;99.90;;;;;;5060767;28;20218;-53
2023/10/12 03:45:24;;;;;;;26.23;12.97;;;15.70;99.90;;;;;;5060827;28;20867;-53
2023/10/12 03:48:04;;;;;;;20.70;12.20;;;15.70;99.90;;;;;;5061409;28;20222;-54
2023/10/12 03:50:53;;;;;;;24.10;13.93;;;15.70;99.90;;;;;;5068507;28;20226;-52
2023/10/12 03:53:26;;;;;;;31.60;13.17;;;15.70;99.90;;;;;;5066600;28;20644;-52
2023/10/12 03:55:58;;;;;;;21.67;13.07;;;15.70;99.90;;;;;;5061553;28;20236;-52
2023/10/12 03:58:29;;;;;;;26.80;13.30;;;15.70;99.90;;;;;;5066813;28;20187;-52
2023/10/12 04:01:10;;;;;;;32.90;13.73;;;15.80;99.90;;;;;;5070696;28;20292;-54
2023/10/12 04:03:43;;;;;;;24.47;13.60;;;15.70;99.90;;;;;;5065646;28;20227;-55
2023/10/12 04:06:23;;;;;;;30.43;13.27;;;15.70;99.90;;;;;;5060161;28;20313;-54
2023/10/12 04:08:58;;;;;;;25.93;13.73;;;15.70;99.90;;;;;;5071282;28;20238;-54
2023/10/12 04:14:43;;;;;;;22.70;13.43;;;15.70;99.90;;;;;;5071215;28;20219;-53
2023/10/12 04:17:34;;;;;;;23.93;12.93;;;15.70;99.90;;;;;;5067045;28;20222;-53
2023/10/12 04:20:15;;;;;;;24.83;13.77;;;15.70;99.90;;;;;;5068864;28;20241;-53
2023/10/12 04:25:34;;;;;;;27.77;13.53;;;15.70;99.90;;;;;;5064044;28;20564;-53
2023/10/12 04:28:17;;;;;;;23.90;14.57;;;15.80;99.90;;;;;;5068184;28;20701;-54
2023/10/12 04:33:42;;;;;;;23.67;13.90;;;15.80;99.90;;;;;;5069042;28;20223;-53
2023/10/12 04:36:14;;;;;;;23.47;13.93;;;15.80;99.90;;;;;;5067199;28;20236;-50
2023/10/12 04:38:57;;;;;;;23.53;14.20;;;15.80;99.90;;;;;;5063192;28;20226;-52
2023/10/12 04:41:38;;;;;;;22.23;14.57;;;15.80;99.90;;;;;;5068547;28;20584;-54
2023/10/12 04:44:25;;;;;;;27.20;14.23;;;15.80;99.90;;;;;;5072090;28;20225;-53
2023/10/12 04:47:04;;;;;;;25.80;13.83;;;15.80;99.90;;;;;;5068911;28;20306;-53
2023/10/12 04:52:25;;;;;;;24.73;14.17;;;15.80;99.90;;;;;;5070189;28;20203;-53
2023/10/12 04:55:00;;;;;;;20.27;14.03;;;15.80;99.90;;;;;;5068106;28;20202;-55
2023/10/12 04:57:32;;;;;;;26.47;14.57;;;15.80;99.90;;;;;;5067683;28;20217;-53
2023/10/12 05:00:17;;;;;;;28.40;14.30;;;15.80;99.90;;;;;;5070039;28;20231;-52
2023/10/12 05:08:27;;;;;;;23.27;14.77;;;15.80;99.90;;;;;;5046126;28;20222;-55
2023/10/12 05:10:55;;;;;;;26.73;14.33;;;15.80;99.90;;;;;;5069723;28;20237;-56
2023/10/12 05:13:23;;;;;;;26.63;14.13;;;15.80;99.90;;;;;;5065591;28;20195;-53
2023/10/12 05:15:56;;;;;;;28.93;14.83;;;15.80;99.90;;;;;;5062962;28;20200;-54
2023/10/12 05:18:27;;;;;;;28.43;13.83;;;15.80;99.90;;;;;;5065293;28;20236;-54
2023/10/12 05:20:55;;;;;;;23.37;14.10;;;15.80;99.90;;;;;;5065356;28;20307;-55
2023/10/12 05:23:23;;;;;;;23.67;14.13;;;15.80;99.90;;;;;;5065096;28;20323;-55
2023/10/12 05:26:07;;;;;;;22.03;12.97;;;15.80;99.90;;;;;;5065331;28;20227;-54
2023/10/12 05:28:38;;;;;;;25.13;13.37;;;15.80;99.90;;;;;;5065644;28;20207;-54
2023/10/12 05:31:13;;;;;;;22.77;13.50;;;15.90;99.90;;;;;;5065811;28;20191;-55
2023/10/12 05:36:31;;;;;;;20.60;13.00;;;15.80;99.90;;;;;;5064793;28;20235;-53
2023/10/12 05:41:42;;;;;;;24.50;13.13;;;15.80;99.90;;;;;;5065387;28;20226;-55
2023/10/12 05:44:13;;;;;;;33.47;13.50;;;15.90;99.90;;;;;;5061458;28;20641;-56
2023/10/12 05:46:50;;;;;;;18.93;12.60;;;15.90;99.90;;;;;;5063819;28;20219;-54
2023/10/12 05:49:23;;;;;;;18.83;11.97;;;15.80;99.90;;;;;;5066498;28;20582;-55
2023/10/12 05:51:52;;;;;;;18.27;12.53;;;15.80;99.90;;;;;;5064037;28;20194;-55
2023/10/12 05:54:23;;;;;;;20.43;12.30;;;15.80;99.90;;;;;;5062459;28;20221;-53
2023/10/12 05:56:52;;;;;;;25.27;12.60;;;15.80;99.90;;;;;;5063107;28;20225;-55
2023/10/12 05:59:22;;;;;;;26.37;12.77;;;15.70;99.90;;;;;;5061334;28;20231;-56
2023/10/12 06:01:51;;;;;;;19.40;11.77;;;15.70;99.90;;;;;;5066125;28;20223;-51
2023/10/12 06:04:22;;;;;;;23.43;12.20;;;15.80;99.90;;;;;;5060671;28;20225;-53
2023/10/12 06:06:52;;;;;;;23.70;11.97;;;15.70;99.90;;;;;;5063425;28;20229;-53
2023/10/12 06:09:23;;;;;;;20.73;11.30;;;15.70;99.90;;;;;;5065565;28;20218;-53
2023/10/12 06:11:55;;;;;;;22.20;11.40;;;15.70;99.90;;;;;;5066282;28;20230;-53
2023/10/12 06:14:23;;;;;;;18.07;10.70;;;15.80;99.90;;;;;;5069215;28;20238;-53
2023/10/12 06:16:56;;;;;;;19.30;11.07;;;15.80;99.90;;;;;;5064938;28;20310;-53
2023/10/12 06:19:28;;;;;;;24.90;11.63;;;15.70;99.90;;;;;;5069300;28;20311;-53
2023/10/12 06:21:58;;;;;;;21.53;10.73;;;15.70;99.90;;;;;;5063750;28;20202;-53
2023/10/12 06:24:35;;;;;;;22.73;11.50;;;15.70;99.90;;;;;;5064361;28;20232;-53
2023/10/12 06:27:22;;;;;;;19.50;11.47;;;15.60;99.90;;;;;;5060776;28;20221;-52
2023/10/12 06:29:54;;;;;;;19.33;10.93;;;15.70;99.90;;;;;;5063375;28;20640;-55
2023/10/12 06:32:31;;;;;;;20.80;10.53;;;15.60;99.90;;;;;;5066488;28;20217;-52
2023/10/12 06:35:13;;;;;;;17.63;9.80;;;15.70;99.90;;;;;;5065209;28;20224;-53
2023/10/12 06:38:00;;;;;;;18.17;10.23;;;15.70;99.90;;;;;;5065472;28;20228;-55
2023/10/12 06:40:38;;;;;;;18.33;10.17;;;15.70;99.90;;;;;;5065836;28;20189;-50
2023/10/12 06:45:54;;;;;;;18.97;9.97;;;15.60;99.90;;;;;;5066943;28;20218;-54
2023/10/12 06:48:23;;;;;;;19.33;9.50;;;15.50;99.90;;;;;;5062138;28;20226;-55
2023/10/12 06:51:02;;;;;;;17.90;10.30;;;15.60;99.90;;;;;;5063389;28;20742;-54
2023/10/12 06:53:34;;;;;;;16.67;10.00;;;15.60;99.90;;;;;;5064118;28;20223;-51
2023/10/12 06:56:16;;;;;;;15.10;10.00;;;15.60;99.90;;;;;;5065247;28;20229;-54
2023/10/12 06:58:45;;;;;;;18.37;9.60;;;15.60;99.90;;;;;;5062908;28;20226;-51
2023/10/12 07:01:18;;;;;;;18.07;10.03;;;15.50;99.90;;;;;;5063674;28;20223;-55
2023/10/12 07:03:48;;;;;;;21.03;9.97;;;15.50;99.90;;;;;;5061858;28;20713;-53
2023/10/12 07:06:18;;;;;;;21.80;9.40;;;15.50;99.90;;;;;;5059976;28;20812;-52
2023/10/12 07:08:48;;;;;;;17.90;9.33;;;15.50;99.90;;;;;;5060818;28;20319;-56
2023/10/12 07:11:18;;;;;;;13.47;8.80;;;15.50;99.90;;;;;;5062955;28;20215;-55
2023/10/12 07:13:49;;;;;;;12.37;8.80;;;15.60;99.90;;;;;;5058763;28;20310;-55
2023/10/12 07:16:21;;;;;;;16.17;8.83;;;15.60;99.90;;;;;;5061816;28;20222;-54
2023/10/12 07:18:53;;;;;;;13.73;8.90;;;15.60;99.90;;;;;;5062602;28;20244;-52
2023/10/12 07:21:42;;;;;;;12.83;8.70;;;15.60;99.90;;;;;;5064582;28;20244;-53
2023/10/12 07:24:11;;;;;;;16.67;8.47;;;15.60;99.90;;;;;;5061372;28;20228;-53
2023/10/12 07:26:48;;;;;;;13.83;8.40;;;15.70;99.90;;;;;;5062623;28;20589;-53
2023/10/12 07:29:19;;;;;;;14.87;8.33;;;15.70;99.90;;;;;;5066392;28;20593;-52
2023/10/12 07:31:51;;;;;;;14.00;7.73;;;15.70;99.90;;;;;;5059101;28;20238;-54
2023/10/12 07:34:23;;;;;;;16.77;8.50;;;15.80;99.90;;;;;;5064015;28;20212;-52
2023/10/12 07:36:57;;;;;;;15.17;8.47;;;15.90;99.90;;;;;;5065032;28;20187;-54
2023/10/12 07:39:38;;;;;;;12.90;7.63;;;16.00;99.90;;;;;;5062177;28;20222;-52
2023/10/12 07:42:12;;;;;;;14.90;7.70;;;16.00;99.90;;;;;;5066168;28;20212;-54
2023/10/12 07:44:42;;;;;;;12.00;7.67;;;16.10;99.90;;;;;;5071095;28;20269;-54
2023/10/12 07:47:19;;;;;;;12.93;8.20;;;16.20;99.90;;;;;;5069252;28;20273;-52
2023/10/12 07:49:51;;;;;;;9.87;7.50;;;16.20;99.90;;;;;;5071761;28;20231;-55
2023/10/12 07:52:38;;;;;;;13.87;7.47;;;16.30;99.90;;;;;;5066967;28;20238;-51
2023/10/12 07:55:12;;;;;;;13.03;7.67;;;16.30;99.90;;;;;;5066851;28;20187;-52
2023/10/12 07:57:41;;;;;;;14.27;7.37;;;16.30;99.90;;;;;;5071645;28;20277;-51
2023/10/12 08:06:07;;;;;;;13.97;6.80;;;16.50;99.90;;;;;;5042513;28;20230;-52
2023/10/12 08:08:37;;;;;;;14.33;7.57;;;16.70;99.90;;;;;;5064211;28;20264;-53
2023/10/12 08:11:27;;;;;;;11.57;7.50;;;16.70;99.90;;;;;;5073113;28;20227;-54
2023/10/12 08:13:56;;;;;;;14.27;7.37;;;16.80;99.90;;;;;;5068507;28;20322;-53
2023/10/12 08:16:27;;;;;;;15.30;7.30;;;16.80;99.90;;;;;;5069444;28;20207;-53
2023/10/12 08:21:44;;;;;;;9.10;7.10;;;16.80;99.90;;;;;;5082482;28;20292;-52
2023/10/12 08:24:23;;;;;;;12.77;6.60;;;16.80;99.90;;;;;;5064475;28;20587;-53
2023/10/12 08:26:58;;;;;;;12.67;7.40;;;16.80;99.90;;;;;;5065213;28;20224;-54
2023/10/12 08:32:27;;;;;;;15.43;7.30;;;16.80;99.90;;;;;;5065781;28;20217;-54
2023/10/12 08:40:30;;;;;;;11.50;7.20;;;16.80;99.90;;;;;;5083981;28;20235;-52
2023/10/12 08:43:06;;;;;;;16.63;8.20;;;16.80;99.90;;;;;;5067493;28;20252;-51
2023/10/12 08:45:37;;;;;;;14.53;7.57;;;16.90;99.90;;;;;;5067214;28;20607;-53
2023/10/12 08:48:09;;;;;;;11.83;6.53;;;16.90;99.90;;;;;;5067417;28;20239;-54
2023/10/12 08:50:58;;;;;;;12.67;8.20;;;17.00;99.90;;;;;;5063576;28;20331;-53
2023/10/12 08:53:31;;;;;;;11.73;7.10;;;17.00;99.90;;;;;;5066636;28;20586;-55
2023/10/12 08:56:08;;;;;;;14.67;7.30;;;17.10;99.90;;;;;;5068388;28;20229;-51
2023/10/12 08:58:46;;;;;;;12.63;7.77;;;17.10;99.90;;;;;;5070662;28;20235;-54
2023/10/12 09:01:23;;;;;;;13.13;7.03;;;17.10;99.90;;;;;;5064454;28;20275;-52
2023/10/12 09:04:00;;;;;;;12.03;7.00;;;17.10;99.90;;;;;;5065341;28;20235;-53
2023/10/12 09:06:53;;;;;;;15.40;7.67;;;17.10;99.90;;;;;;5063148;28;20223;-54
2023/10/12 09:12:12;;;;;;;13.10;8.00;;;17.10;99.90;;;;;;5070560;28;20843;-55
2023/10/12 09:14:46;;;;;;;17.50;8.17;;;17.10;99.90;;;;;;5069075;28;20219;-51
2023/10/12 09:17:30;;;;;;;14.47;7.87;;;17.10;99.90;;;;;;5059634;28;20223;-54
2023/10/12 09:22:48;;;;;;;15.30;8.23;;;17.10;99.90;;;;;;5061095;28;21052;-54
2023/10/12 09:25:59;;;;;;;13.37;7.57;;;17.10;99.90;;;;;;5070919;28;20208;-54
2023/10/12 09:28:51;;;;;;;12.77;7.63;;;17.10;99.90;;;;;;5067459;28;20555;-55
2023/10/12 09:31:48;;;;;;;10.73;7.47;;;17.20;99.90;;;;;;5068467;28;20184;-54
2023/10/12 09:36:56;;;;;;;9.80;7.00;;;17.20;99.90;;;;;;5060439;28;20574;-51
2023/10/12 09:39:26;;;;;;;13.47;7.60;;;17.20;99.90;;;;;;5065961;28;20219;-55
2023/10/12 09:41:55;;;;;;;10.43;7.70;;;17.20;99.90;;;;;;5068873;28;20216;-53
2023/10/12 09:44:28;;;;;;;13.97;7.47;;;17.20;99.90;;;;;;5070727;28;20692;-54
2023/10/12 09:46:57;;;;;;;12.90;8.10;;;17.10;99.90;;;;;;5070440;28;20258;-52
2023/10/12 09:49:30;;;;;;;14.03;7.30;;;17.10;99.90;;;;;;5068407;28;20232;-52
2023/10/12 09:51:59;;;;;;;16.93;8.77;;;17.10;99.90;;;;;;5069387;28;20266;-54
2023/10/12 09:54:45;;;;;;;11.20;7.67;;;17.10;99.90;;;;;;5065454;28;20224;-54
2023/10/12 09:57:23;;;;;;;18.77;8.73;;;17.10;99.90;;;;;;5067415;28;20269;-56
2023/10/12 09:59:59;;;;;;;20.17;9.17;;;17.00;99.90;;;;;;5071974;28;20759;-55
2023/10/12 10:02:33;;;;;;;16.23;8.53;;;17.00;99.90;;;;;;5068263;28;20246;-51
2023/10/12 10:05:11;;;;;;;18.00;8.90;;;16.90;99.90;;;;;;5064125;28;20250;-52
2023/10/12 10:07:52;;;;;;;18.67;9.53;;;17.00;99.90;;;;;;5064957;28;20336;-52
2023/10/12 10:10:30;;;;;;;17.43;8.77;;;17.00;99.90;;;;;;5062728;28;20189;-54
2023/10/12 10:13:00;;;;;;;14.73;8.63;;;17.10;99.90;;;;;;5067723;28;20228;-54
2023/10/12 10:15:36;;;;;;;17.17;8.37;;;17.10;99.90;;;;;;5068729;28;20204;-55
2023/10/12 10:18:05;;;;;;;13.57;8.47;;;17.20;99.90;;;;;;5058494;28;20220;-51
2023/10/12 10:20:50;;;;;;;20.50;8.53;;;17.30;99.90;;;;;;5064799;28;20854;-52
2023/10/12 10:23:19;;;;;;;17.27;8.77;;;17.30;99.90;;;;;;5063106;28;20226;-51
2023/10/12 10:25:57;;;;;;;16.03;8.47;;;17.40;99.90;;;;;;5063524;28;20240;-54
2023/10/12 10:28:28;;;;;;;14.27;8.80;;;17.50;99.90;;;;;;5063726;28;20192;-54
2023/10/12 10:31:00;;;;;;;13.83;8.77;;;17.60;99.90;;;;;;5063250;28;20254;-53
2023/10/12 10:33:30;;;;;;;13.07;8.33;;;17.50;99.90;;;;;;5063124;28;20234;-52
2023/10/12 10:36:10;;;;;;;11.97;8.27;;;17.50;99.90;;;;;;5061956;28;20316;-55
2023/10/12 10:38:49;;;;;;;12.33;7.90;;;17.50;99.90;;;;;;5064807;28;20294;-56
2023/10/12 10:41:22;;;;;;;14.80;8.50;;;17.60;99.90;;;;;;5067792;28;20621;-53
2023/10/12 10:43:52;;;;;;;11.00;7.57;;;17.50;99.90;;;;;;5067134;28;20230;-55
2023/10/12 10:46:26;;;;;;;12.63;8.00;;;17.50;99.90;;;;;;5063490;28;20273;-54
2023/10/12 10:48:56;;;;;;;11.80;8.43;;;17.60;99.90;;;;;;5066637;28;20191;-53
2023/10/12 10:52:01;;;;;;;14.57;8.63;;;17.50;99.90;;;;;;5063541;28;21064;-52
2023/10/12 10:54:32;;;;;;;13.87;7.80;;;17.40;99.90;;;;;;5069117;28;20224;-51
2023/10/12 10:57:14;;;;;;;15.30;8.30;;;17.40;99.90;;;;;;5067155;28;20220;-53
2023/10/12 10:59:43;;;;;;;15.27;8.40;;;17.30;99.90;;;;;;5065190;28;20246;-55
2023/10/12 11:02:16;;;;;;;15.40;8.23;;;17.30;99.90;;;;;;5069250;28;20211;-55
2023/10/12 11:04:45;;;;;;;18.17;8.97;;;17.20;99.90;;;;;;5065746;28;20231;-54
2023/10/12 11:07:15;;;;;;;19.67;9.43;;;17.20;99.90;;;;;;5061999;28;20216;-55
2023/10/12 11:10:08;;;;;;;15.37;8.70;;;17.20;99.90;;;;;;5061380;28;20301;-54
2023/10/12 11:12:36;;;;;;;15.87;8.33;;;17.10;99.90;;;;;;5065539;28;20243;-51
2023/10/12 11:15:09;;;;;;;11.80;7.87;;;17.10;99.90;;;;;;5062563;28;20725;-55
2023/10/12 11:17:56;;;;;;;15.10;8.67;;;17.20;99.90;;;;;;5067016;28;20223;-53
2023/10/12 11:20:43;;;;;;;15.90;9.13;;;17.10;99.90;;;;;;5066217;28;20281;-53
2023/10/12 11:23:15;;;;;;;14.27;9.07;;;17.30;99.90;;;;;;5063485;28;20231;-53
2023/10/12 11:25:43;;;;;;;18.03;9.23;;;17.20;99.90;;;;;;5062772;28;20223;-51
2023/10/12 11:28:20;;;;;;;13.20;9.27;;;17.30;99.90;;;;;;5067025;28;20197;-54
2023/10/12 11:30:51;;;;;;;14.93;8.83;;;17.20;99.90;;;;;;5063983;28;20223;-55
2023/10/12 11:33:29;;;;;;;15.47;9.43;;;17.20;99.90;;;;;;5065708;28;20690;-53
2023/10/12 11:36:03;;;;;;;17.97;9.03;;;17.10;99.90;;;;;;5068515;28;20719;-51
2023/10/12 11:38:32;;;;;;;20.20;9.17;;;17.10;99.90;;;;;;5066198;28;20216;-51
2023/10/12 11:41:13;;;;;;;15.23;9.20;;;17.10;99.90;;;;;;5060721;28;20244;-55
2023/10/12 11:43:53;;;;;;;16.37;9.73;;;17.00;99.90;;;;;;5065842;28;20231;-52
2023/10/12 11:46:23;;;;;;;19.23;9.67;;;17.00;99.90;;;;;;5065037;28;20221;-52
2023/10/12 11:49:05;;;;;;;15.10;9.47;;;17.00;99.90;;;;;;5066520;28;20188;-52
2023/10/12 11:51:40;;;;;;;14.83;9.83;;;17.00;99.90;;;;;;5067259;28;20231;-52
2023/10/12 11:54:13;;;;;;;16.03;9.80;;;17.00;99.90;;;;;;5068676;28;20227;-53
2023/10/12 11:56:44;;;;;;;17.23;10.50;;;17.10;99.90;;;;;;5064345;28;20212;-55
2023/10/12 11:59:22;;;;;;;15.10;10.20;;;17.10;99.90;;;;;;5063726;28;20592;-50
2023/10/12 12:01:55;;;;;;;20.93;10.00;;;17.10;99.90;;;;;;5065726;28;20247;-50
2023/10/12 12:04:31;;;;;;;18.00;10.73;;;17.10;99.90;;;;;;5064089;28;20195;-54
2023/10/12 12:07:02;;;;;;;19.77;9.80;;;17.20;99.90;;;;;;5069047;28;20724;-53
2023/10/12 12:09:31;;;;;;;17.37;9.50;;;17.10;99.90;;;;;;5063128;28;20223;-50
2023/10/12 12:12:00;;;;;;;19.03;10.27;;;17.00;99.90;;;;;;5061319;28;20593;-49
2023/10/12 12:14:28;;;;;;;16.93;10.27;;;17.00;99.90;;;;;;5061514;28;20707;-54
2023/10/12 12:16:57;;;;;;;18.20;10.70;;;17.00;99.90;;;;;;5060739;28;20727;-53
2023/10/12 12:19:27;;;;;;;22.30;10.73;;;16.90;99.90;;;;;;5062721;28;20196;-52
2023/10/12 12:21:55;;;;;;;19.13;11.03;;;16.90;99.90;;;;;;5064793;28;21534;-51
2023/10/12 12:24:25;;;;;;;17.10;10.00;;;16.80;99.90;;;;;;5065754;28;20216;-52
2023/10/12 12:26:53;;;;;;;20.47;10.60;;;16.80;99.90;;;;;;5059717;28;20227;-51
2023/10/12 12:29:26;;;;;;;21.53;10.67;;;16.80;99.90;;;;;;5067647;28;20219;-51
2023/10/12 12:32:06;;;;;;;16.10;10.77;;;16.80;99.90;;;;;;5069970;28;20212;-52
2023/10/12 12:34:41;;;;;;;22.13;11.03;;;16.80;99.90;;;;;;5071757;28;20641;-53
2023/10/12 12:37:10;;;;;;;16.97;10.53;;;16.70;99.90;;;;;;5065194;28;20653;-52
2023/10/12 12:39:39;;;;;;;21.90;11.77;;;16.80;99.90;;;;;;5069203;28;20274;-51
2023/10/12 12:42:09;;;;;;;20.50;10.77;;;16.80;99.90;;;;;;5071957;28;20220;-50
2023/10/12 12:44:39;;;;;;;20.07;11.47;;;16.80;99.90;;;;;;5069046;28;20219;-52
2023/10/12 12:47:09;;;;;;;19.63;11.20;;;16.80;99.90;;;;;;5068485;28;20319;-52
2023/10/12 12:49:39;;;;;;;22.43;10.63;;;16.70;99.90;;;;;;5069176;28;20290;-54
2023/10/12 12:52:09;;;;;;;18.47;10.67;;;16.70;99.90;;;;;;5070667;28;20188;-51
2023/10/12 12:54:37;;;;;;;18.27;11.40;;;16.70;99.90;;;;;;5061051;28;20293;-50
2023/10/12 12:57:06;;;;;;;19.07;11.20;;;16.80;99.90;;;;;;5063214;28;20705;-50
2023/10/12 12:59:35;;;;;;;17.53;11.30;;;16.80;99.90;;;;;;5066839;28;20306;-51
2023/10/12 13:02:03;;;;;;;21.03;11.20;;;16.80;99.90;;;;;;5068278;28;20227;-53
2023/10/12 13:04:35;;;;;;;17.87;11.07;;;16.80;99.90;;;;;;5072964;28;20240;-52
2023/10/12 13:07:09;;;;;;;21.77;11.67;;;16.70;99.90;;;;;;5071292;28;20257;-53
2023/10/12 13:09:40;;;;;;;17.17;11.00;;;16.70;99.90;;;;;;5064205;28;20227;-51
2023/10/12 13:12:10;;;;;;;16.37;10.27;;;16.70;99.90;;;;;;5058329;28;20267;-54
2023/10/12 13:14:42;;;;;;;17.50;10.20;;;16.70;99.90;;;;;;5063759;28;20222;-54
2023/10/12 13:17:12;;;;;;;16.07;11.23;;;16.80;99.90;;;;;;5066542;28;20265;-50
2023/10/12 13:19:44;;;;;;;17.03;10.00;;;16.80;99.90;;;;;;5064562;28;20280;-51
2023/10/12 13:22:14;;;;;;;12.87;9.80;;;16.80;99.90;;;;;;5067402;28;20188;-51
2023/10/12 13:24:42;;;;;;;15.07;10.10;;;16.90;99.90;;;;;;5063934;28;20698;-52
2023/10/12 13:27:16;;;;;;;16.83;10.33;;;16.90;99.90;;;;;;5066801;28;20237;-52
2023/10/12 13:29:48;;;;;;;15.17;10.67;;;16.80;99.90;;;;;;5064447;28;20335;-53
2023/10/12 13:32:17;;;;;;;13.73;10.10;;;16.90;99.90;;;;;;5067828;28;20234;-50
2023/10/12 13:34:45;;;;;;;16.47;10.53;;;16.80;99.90;;;;;;5063752;28;20286;-51
2023/10/12 13:37:15;;;;;;;17.63;10.53;;;16.80;99.90;;;;;;5070296;28;20566;-52
2023/10/12 13:39:44;;;;;;;16.60;11.37;;;16.80;99.90;;;;;;5044511;28;20219;-54
2023/10/12 13:42:12;;;;;;;18.30;11.90;;;16.90;99.90;;;;;;5064461;28;20244;-52
2023/10/12 13:44:42;;;;;;;19.57;12.43;;;16.90;99.90;;;;;;5066822;28;20241;-52
2023/10/12 13:47:12;;;;;;;20.07;13.03;;;16.90;99.90;;;;;;5068347;28;20235;-53
2023/10/12 13:49:42;;;;;;;21.50;13.03;;;16.90;99.90;;;;;;5066580;28;20220;-52
2023/10/12 13:52:10;;;;;;;19.70;13.23;;;16.90;99.90;;;;;;5068699;28;20569;-50
2023/10/12 13:54:45;;;;;;;22.33;13.87;;;17.00;99.90;;;;;;5066565;28;20216;-49
2023/10/12 13:57:14;;;;;;;24.17;14.40;;;17.00;99.90;;;;;;5064017;28;20211;-53
2023/10/12 13:59:45;;;;;;;28.07;14.67;;;17.00;99.90;;;;;;5065886;28;20299;-48